Time;durP1;ratioP1;P1;durP2;ratioP2;P2;SDS_P1;SDS_P2;PMS_P1;PMS_P2;Temp;Humidity;BMP_temperature;BMP_pressure;BME280_temperature;BME280_humidity;BME280_pressure;Samples;Min_cycle;Max_cycle;Signal;HPM_P1;HPM_P2
2022/09/07 00:00:12;;;;;;;;;;;15.30;99.90;;;;;;5072700;28;19909;-75
2022/09/07 00:02:37;;;;;;;;;;;15.40;99.90;;;;;;5073875;28;19956;-75
2022/09/07 00:05:03;;;;;;;;;;;15.40;99.90;;;;;;5073576;28;19912;-75
2022/09/07 00:07:29;;;;;;;;;;;15.40;99.90;;;;;;5073274;28;19916;-75
2022/09/07 00:09:55;;;;;;;;;;;15.40;99.90;;;;;;5072237;28;20315;-75
2022/09/07 00:12:20;;;;;;;;;;;15.50;99.90;;;;;;5072735;28;19908;-75
2022/09/07 00:14:46;;;;;;;;;;;15.50;99.90;;;;;;5073893;28;20254;-75
2022/09/07 00:17:11;;;;;;;;;;;15.50;99.90;;;;;;5073050;28;19908;-75
2022/09/07 00:19:37;;;;;;;;;;;15.50;99.90;;;;;;5073218;28;19935;-75
2022/09/07 00:22:02;;;;;;;;;;;15.60;99.90;;;;;;5073623;28;19909;-76
2022/09/07 00:24:28;;;;;;;;;;;15.50;99.90;;;;;;5071381;28;19966;-75
2022/09/07 00:26:54;;;;;;;;;;;15.50;99.90;;;;;;5073713;28;20007;-75
2022/09/07 00:29:20;;;;;;;;;;;15.50;99.90;;;;;;5071677;28;19977;-75
2022/09/07 00:31:45;;;;;;;;;;;15.60;99.90;;;;;;5073369;28;19962;-75
2022/09/07 00:34:11;;;;;;;;;;;15.60;99.90;;;;;;5072286;28;20293;-75
2022/09/07 00:36:36;;;;;;;;;;;15.60;99.90;;;;;;5072684;28;19997;-75
2022/09/07 00:39:02;;;;;;;;;;;15.60;99.90;;;;;;5072540;28;20385;-76
2022/09/07 00:41:28;;;;;;;;;;;15.60;99.90;;;;;;5071941;28;19928;-76
2022/09/07 00:43:54;;;;;;;;;;;15.60;99.90;;;;;;5073041;28;19917;-79
2022/09/07 00:46:25;;;;;;;;;;;15.60;99.90;;;;;;5072554;28;20269;-79
2022/09/07 00:49:02;;;;;;;;;;;15.60;99.90;;;;;;5072913;28;19931;-80
2022/09/07 00:51:27;;;;;;;;;;;15.60;99.90;;;;;;5072607;28;19913;-79
2022/09/07 00:53:57;;;;;;;;;;;15.60;99.90;;;;;;5073118;28;19909;-79
2022/09/07 00:56:24;;;;;;;;;;;15.60;99.90;;;;;;5072075;28;20358;-81
2022/09/07 00:58:50;;;;;;;;;;;15.50;99.90;;;;;;5072238;28;19995;-80
2022/09/07 01:01:16;;;;;;;;;;;15.50;99.90;;;;;;5072340;28;19958;-79
2022/09/07 01:03:44;;;;;;;;;;;15.60;99.90;;;;;;5073059;28;20027;-81
2022/09/07 01:06:17;;;;;;;;;;;15.60;99.90;;;;;;5072353;28;19920;-82
2022/09/07 01:08:44;;;;;;;;;;;15.50;99.90;;;;;;5072705;28;19908;-83
2022/09/07 01:11:10;;;;;;;;;;;15.60;99.90;;;;;;5070856;28;19909;-80
2022/09/07 01:13:37;;;;;;;;;;;15.50;99.90;;;;;;5071677;28;19909;-80
2022/09/07 01:16:11;;;;;;;;;;;15.60;99.90;;;;;;5072737;28;19915;-80
2022/09/07 01:18:44;;;;;;;;;;;15.60;99.90;;;;;;5072305;28;20432;-79
2022/09/07 01:21:28;;;;;;;;;;;15.50;99.90;;;;;;5072408;28;20426;-80
2022/09/07 01:23:57;;;;;;;;;;;15.50;99.90;;;;;;5075923;28;19917;-81
2022/09/07 01:26:22;;;;;;;;;;;15.60;99.90;;;;;;5076493;28;19974;-79
2022/09/07 01:28:52;;;;;;;;;;;15.50;99.90;;;;;;5077031;28;19908;-80
2022/09/07 01:31:26;;;;;;;;;;;15.50;99.90;;;;;;5077350;28;19969;-79
2022/09/07 01:33:57;;;;;;;;;;;15.50;99.90;;;;;;5076466;28;19952;-77
2022/09/07 01:36:33;;;;;;;;;;;15.50;99.90;;;;;;5074885;28;19915;-77
2022/09/07 01:39:00;;;;;;;;;;;15.50;99.90;;;;;;5075476;28;19908;-78
2022/09/07 01:41:26;;;;;;;;;;;15.50;99.90;;;;;;5075731;28;20152;-75
2022/09/07 01:43:51;;;;;;;;;;;15.50;99.90;;;;;;5076223;28;19912;-75
2022/09/07 01:46:22;;;;;;;;;;;15.50;99.90;;;;;;5076272;28;20288;-77
2022/09/07 01:48:50;;;;;;;;;;;15.50;99.90;;;;;;5075763;28;20413;-77
2022/09/07 01:51:16;;;;;;;;;;;15.60;99.90;;;;;;5075774;28;19913;-77
2022/09/07 01:53:54;;;;;;;;;;;15.50;99.90;;;;;;5077279;28;19915;-78
2022/09/07 01:56:26;;;;;;;;;;;15.60;99.90;;;;;;5076959;28;20337;-79
2022/09/07 01:59:00;;;;;;;;;;;15.60;99.90;;;;;;5077528;28;20364;-79
2022/09/07 02:01:32;;;;;;;;;;;15.60;99.90;;;;;;5077319;28;19931;-80
2022/09/07 02:04:00;;;;;;;;;;;15.60;99.90;;;;;;5076501;28;19918;-79
2022/09/07 02:06:32;;;;;;;;;;;15.60;99.90;;;;;;5077630;28;19920;-80
2022/09/07 02:08:59;;;;;;;;;;;15.50;99.90;;;;;;5075606;28;19908;-77
2022/09/07 02:11:36;;;;;;;;;;;15.60;99.90;;;;;;5075218;28;19919;-75
2022/09/07 02:14:28;;;;;;;;;;;15.50;99.90;;;;;;5074729;28;19909;-75
2022/09/07 02:17:15;;;;;;;;;;;15.60;99.90;;;;;;5075608;28;19955;-75
2022/09/07 02:19:42;;;;;;;;;;;15.50;99.90;;;;;;5075167;28;19909;-76
2022/09/07 02:22:10;;;;;;;;;;;15.60;99.90;;;;;;5073810;28;19909;-76
2022/09/07 02:24:38;;;;;;;;;;;15.50;99.90;;;;;;5075777;28;19967;-75
2022/09/07 02:27:06;;;;;;;;;;;15.50;99.90;;;;;;5075206;28;19966;-74
2022/09/07 02:29:32;;;;;;;;;;;15.50;99.90;;;;;;5075339;28;19908;-75
2022/09/07 02:31:57;;;;;;;;;;;15.50;99.90;;;;;;5074415;28;19915;-75
2022/09/07 02:34:23;;;;;;;;;;;15.50;99.90;;;;;;5075162;28;19913;-75
2022/09/07 02:36:50;;;;;;;;;;;15.50;99.90;;;;;;5075407;28;20417;-76
2022/09/07 02:39:16;;;;;;;;;;;15.40;99.90;;;;;;5077443;28;19974;-80
2022/09/07 02:41:42;;;;;;;;;;;15.50;99.90;;;;;;5078166;28;20011;-82
2022/09/07 02:44:13;;;;;;;;;;;15.50;99.90;;;;;;5078402;28;19917;-78
2022/09/07 02:46:38;;;;;;;;;;;15.40;99.90;;;;;;5076981;28;19919;-78
2022/09/07 02:49:25;;;;;;;;;;;15.40;99.90;;;;;;5074280;28;20285;-77
2022/09/07 02:51:51;;;;;;;;;;;15.40;99.90;;;;;;5075362;28;19916;-75
2022/09/07 02:54:28;;;;;;;;;;;15.40;99.90;;;;;;5074958;28;20319;-75
2022/09/07 02:57:09;;;;;;;;;;;15.40;99.90;;;;;;5075260;28;19909;-75
2022/09/07 02:59:35;;;;;;;;;;;15.40;99.90;;;;;;5073170;28;19958;-75
2022/09/07 03:02:06;;;;;;;;;;;15.40;99.90;;;;;;5074811;28;19940;-75
2022/09/07 03:04:47;;;;;;;;;;;15.30;99.90;;;;;;5073117;28;19939;-76
2022/09/07 03:07:16;;;;;;;;;;;15.30;99.90;;;;;;5072688;28;20003;-76
2022/09/07 03:09:45;;;;;;;;;;;15.30;99.90;;;;;;5074535;28;19909;-75
2022/09/07 03:12:11;;;;;;;;;;;15.30;99.90;;;;;;5073017;28;19908;-76
2022/09/07 03:14:38;;;;;;;;;;;15.40;99.90;;;;;;5073637;28;19908;-75
2022/09/07 03:17:04;;;;;;;;;;;15.30;99.90;;;;;;5073508;28;19951;-75
2022/09/07 03:19:29;;;;;;;;;;;15.40;99.90;;;;;;5073358;28;19947;-75
2022/09/07 03:21:55;;;;;;;;;;;15.40;99.90;;;;;;5074404;28;19916;-75
2022/09/07 03:24:21;;;;;;;;;;;15.40;99.90;;;;;;5074010;28;19919;-75
2022/09/07 03:26:53;;;;;;;;;;;15.40;99.90;;;;;;5074605;28;19919;-75
2022/09/07 03:29:18;;;;;;;;;;;15.40;99.90;;;;;;5073795;28;20003;-76
2022/09/07 03:31:44;;;;;;;;;;;15.40;99.90;;;;;;5074329;28;20021;-75
2022/09/07 03:34:10;;;;;;;;;;;15.40;99.90;;;;;;5073918;28;19908;-76
2022/09/07 03:36:36;;;;;;;;;;;15.30;99.90;;;;;;5074328;28;19915;-76
2022/09/07 03:39:02;;;;;;;;;;;15.30;99.90;;;;;;5072863;28;20350;-76
2022/09/07 03:41:28;;;;;;;;;;;15.30;99.90;;;;;;5072949;28;20487;-76
2022/09/07 03:43:53;;;;;;;;;;;15.30;99.90;;;;;;5073989;28;20015;-76
2022/09/07 03:46:19;;;;;;;;;;;15.30;99.90;;;;;;5072950;28;19913;-75
2022/09/07 03:48:46;;;;;;;;;;;15.30;99.90;;;;;;5073925;28;19912;-75
2022/09/07 03:51:12;;;;;;;;;;;15.30;99.90;;;;;;5073471;28;19908;-75
2022/09/07 03:53:38;;;;;;;;;;;15.30;99.90;;;;;;5074140;28;20006;-76
2022/09/07 03:56:06;;;;;;;;;;;15.30;99.90;;;;;;5073871;28;19909;-75
2022/09/07 03:58:32;;;;;;;;;;;15.30;99.90;;;;;;5073271;28;19916;-75
2022/09/07 04:00:59;;;;;;;;;;;15.30;99.90;;;;;;5071985;28;19908;-74
2022/09/07 04:03:25;;;;;;;;;;;15.30;99.90;;;;;;5073001;28;19913;-75
2022/09/07 04:05:51;;;;;;;;;;;15.30;99.90;;;;;;5073787;28;20255;-74
2022/09/07 04:08:16;;;;;;;;;;;15.30;99.90;;;;;;5072821;28;19915;-75
2022/09/07 04:10:42;;;;;;;;;;;15.30;99.90;;;;;;5072515;28;20015;-75
2022/09/07 04:13:08;;;;;;;;;;;15.30;99.90;;;;;;5073636;28;19908;-75
2022/09/07 04:15:34;;;;;;;;;;;15.30;99.90;;;;;;5073167;28;20368;-76
2022/09/07 04:18:00;;;;;;;;;;;15.30;99.90;;;;;;5072403;28;20350;-76
2022/09/07 04:20:25;;;;;;;;;;;15.30;99.90;;;;;;5072466;28;19919;-76
2022/09/07 04:22:51;;;;;;;;;;;15.30;99.90;;;;;;5073771;28;19908;-75
2022/09/07 04:25:17;;;;;;;;;;;15.30;99.90;;;;;;5072709;28;20316;-75
2022/09/07 04:27:42;;;;;;;;;;;15.40;99.90;;;;;;5073089;28;19909;-75
2022/09/07 04:30:08;;;;;;;;;;;15.40;99.90;;;;;;5073111;28;19944;-75
2022/09/07 04:32:34;;;;;;;;;;;15.40;99.90;;;;;;5073032;28;19915;-75
2022/09/07 04:34:59;;;;;;;;;;;15.40;99.90;;;;;;5073402;28;19908;-75
2022/09/07 04:37:25;;;;;;;;;;;15.40;99.90;;;;;;5072539;28;19923;-75
2022/09/07 04:39:51;;;;;;;;;;;15.50;99.90;;;;;;5073052;28;20008;-75
2022/09/07 04:42:16;;;;;;;;;;;15.40;99.90;;;;;;5071977;28;20378;-75
2022/09/07 04:44:42;;;;;;;;;;;15.50;99.90;;;;;;5071921;28;19919;-75
2022/09/07 04:47:08;;;;;;;;;;;15.40;99.90;;;;;;5072791;28;19920;-75
2022/09/07 04:49:33;;;;;;;;;;;15.40;99.90;;;;;;5072621;28;19992;-76
2022/09/07 04:51:59;;;;;;;;;;;15.40;99.90;;;;;;5072802;28;20062;-75
2022/09/07 04:54:25;;;;;;;;;;;15.40;99.90;;;;;;5072817;28;19917;-75
2022/09/07 04:56:51;;;;;;;;;;;15.40;99.90;;;;;;5072652;28;19915;-74
2022/09/07 04:59:16;;;;;;;;;;;15.40;99.90;;;;;;5071843;28;20280;-76
2022/09/07 05:01:42;;;;;;;;;;;15.30;99.90;;;;;;5072555;28;19908;-75
2022/09/07 05:04:08;;;;;;;;;;;15.30;99.90;;;;;;5072720;28;19958;-74
2022/09/07 05:06:33;;;;;;;;;;;15.30;99.90;;;;;;5104781;28;19913;-75
2022/09/07 05:08:59;;;;;;;;;;;15.30;99.90;;;;;;5072690;28;20336;-74
2022/09/07 05:11:25;;;;;;;;;;;15.30;99.90;;;;;;5070765;28;20371;-75
2022/09/07 05:13:50;;;;;;;;;;;15.30;99.90;;;;;;5072831;28;19909;-75
2022/09/07 05:16:21;;;;;;;;;;;15.30;99.90;;;;;;5072151;28;19995;-75
2022/09/07 05:18:50;;;;;;;;;;;15.30;99.90;;;;;;5072875;28;20011;-75
2022/09/07 05:21:17;;;;;;;;;;;15.30;99.90;;;;;;5071313;28;19908;-75
2022/09/07 05:23:44;;;;;;;;;;;15.30;99.90;;;;;;5073008;28;20003;-75
2022/09/07 05:26:10;;;;;;;;;;;15.20;99.90;;;;;;5072036;28;20348;-76
2022/09/07 05:28:36;;;;;;;;;;;15.20;99.90;;;;;;5072389;28;19908;-75
2022/09/07 05:31:12;;;;;;;;;;;15.30;99.90;;;;;;5071220;28;20357;-75
2022/09/07 05:33:38;;;;;;;;;;;15.20;99.90;;;;;;5073034;28;19912;-75
2022/09/07 05:36:04;;;;;;;;;;;15.20;99.90;;;;;;5073208;28;20320;-75
2022/09/07 05:38:33;;;;;;;;;;;15.30;99.90;;;;;;5072059;28;19916;-75
2022/09/07 05:40:58;;;;;;;;;;;15.20;99.90;;;;;;5071427;28;19921;-75
2022/09/07 05:43:25;;;;;;;;;;;15.30;99.90;;;;;;5071806;28;19917;-85
2022/09/07 05:45:53;;;;;;;;;;;15.30;99.90;;;;;;5071808;28;20321;-80
2022/09/07 05:48:18;;;;;;;;;;;15.30;99.90;;;;;;5071659;28;20431;-80
2022/09/07 05:50:53;;;;;;;;;;;15.20;99.90;;;;;;5071973;28;19908;-76
2022/09/07 05:53:19;;;;;;;;;;;15.20;99.90;;;;;;5071658;28;19915;-76
2022/09/07 05:55:45;;;;;;;;;;;15.20;99.90;;;;;;5072588;28;19946;-75
2022/09/07 05:58:10;;;;;;;;;;;15.20;99.90;;;;;;5071662;28;19978;-76
2022/09/07 06:00:36;;;;;;;;;;;15.20;99.90;;;;;;5072248;28;19931;-75
2022/09/07 06:03:02;;;;;;;;;;;15.20;99.90;;;;;;5071713;28;20325;-75
2022/09/07 06:05:27;;;;;;;;;;;15.20;99.90;;;;;;5072000;28;19919;-76
2022/09/07 06:07:53;;;;;;;;;;;15.10;99.90;;;;;;5072057;28;20338;-76
2022/09/07 06:10:19;;;;;;;;;;;15.20;99.90;;;;;;5074599;28;19915;-77
2022/09/07 06:12:45;;;;;;;;;;;15.20;99.90;;;;;;5075433;28;20289;-76
2022/09/07 06:15:11;;;;;;;;;;;15.20;99.90;;;;;;5075326;28;19908;-76
2022/09/07 06:17:36;;;;;;;;;;;15.10;99.90;;;;;;5074779;28;19961;-76
2022/09/07 06:20:03;;;;;;;;;;;15.10;99.90;;;;;;5075608;28;19908;-77
2022/09/07 06:22:29;;;;;;;;;;;15.20;99.90;;;;;;5074847;28;19904;-76
2022/09/07 06:24:54;;;;;;;;;;;15.20;99.90;;;;;;5075693;28;19923;-76
2022/09/07 06:27:20;;;;;;;;;;;15.20;99.90;;;;;;5075126;28;20498;-76
2022/09/07 06:29:45;;;;;;;;;;;15.30;99.90;;;;;;5075573;28;19912;-77
2022/09/07 06:32:11;;;;;;;;;;;15.30;99.90;;;;;;5075128;28;19915;-76
2022/09/07 06:34:36;;;;;;;;;;;15.30;99.90;;;;;;5075660;28;20364;-76
2022/09/07 06:37:02;;;;;;;;;;;15.30;99.90;;;;;;5074246;28;19988;-75
2022/09/07 06:39:27;;;;;;;;;;;15.30;99.90;;;;;;5081523;28;19916;-75
2022/09/07 06:41:53;;;;;;;;;;;15.40;99.90;;;;;;5081227;28;19921;-75
2022/09/07 06:44:19;;;;;;;;;;;15.40;99.90;;;;;;5091117;28;20379;-76
2022/09/07 06:46:45;;;;;;;;;;;15.40;99.90;;;;;;5095935;28;20015;-76
2022/09/07 06:49:10;;;;;;;;;;;15.30;99.90;;;;;;5094726;28;19908;-75
2022/09/07 06:51:36;;;;;;;;;;;15.40;99.90;;;;;;5094859;28;19908;-75
2022/09/07 06:54:04;;;;;;;;;;;15.40;99.90;;;;;;5094385;28;20007;-76
2022/09/07 06:56:30;;;;;;;;;;;15.40;99.90;;;;;;5095121;28;19994;-77
2022/09/07 06:58:56;;;;;;;;;;;15.40;99.90;;;;;;5095455;28;20384;-76
2022/09/07 07:01:25;;;;;;;;;;;15.40;99.90;;;;;;5094186;28;19952;-76
2022/09/07 07:03:52;;;;;;;;;;;15.40;99.90;;;;;;5086489;28;20362;-76
2022/09/07 07:06:17;;;;;;;;;;;15.40;99.90;;;;;;5073779;28;20320;-77
2022/09/07 07:08:43;;;;;;;;;;;15.30;99.90;;;;;;5074895;28;19908;-76
2022/09/07 07:11:09;;;;;;;;;;;15.30;99.90;;;;;;5073518;28;20373;-76
2022/09/07 07:13:35;;;;;;;;;;;15.30;99.90;;;;;;5074562;28;19919;-76
2022/09/07 07:16:05;;;;;;;;;;;15.40;99.90;;;;;;5074921;28;19908;-76
2022/09/07 07:18:31;;;;;;;;;;;15.40;99.90;;;;;;5074394;28;19909;-76
2022/09/07 07:20:57;;;;;;;;;;;15.40;99.90;;;;;;5072734;28;20305;-75
2022/09/07 07:23:22;;;;;;;;;;;15.40;99.90;;;;;;5073535;28;19919;-76
2022/09/07 07:25:48;;;;;;;;;;;15.40;99.90;;;;;;5074701;28;19971;-76
2022/09/07 07:28:14;;;;;;;;;;;15.50;99.90;;;;;;5073617;28;19912;-75
2022/09/07 07:30:39;;;;;;;;;;;15.50;99.90;;;;;;5074444;28;20353;-75
2022/09/07 07:33:06;;;;;;;;;;;15.60;99.90;;;;;;5074336;28;20423;-75
2022/09/07 07:35:32;;;;;;;;;;;15.60;99.90;;;;;;5073489;28;19915;-75
2022/09/07 07:37:58;;;;;;;;;;;15.60;99.90;;;;;;5074396;28;19908;-75
2022/09/07 07:40:24;;;;;;;;;;;15.70;99.90;;;;;;5073119;28;19908;-75
2022/09/07 07:42:49;;;;;;;;;;;15.70;99.90;;;;;;5073329;28;19915;-74
2022/09/07 07:45:15;;;;;;;;;;;15.80;99.90;;;;;;5073619;28;19920;-75
2022/09/07 07:47:41;;;;;;;;;;;15.80;99.90;;;;;;5074136;28;19909;-74
2022/09/07 07:50:07;;;;;;;;;;;15.90;99.90;;;;;;5072613;28;19923;-76
2022/09/07 07:52:37;;;;;;;;;;;15.90;99.90;;;;;;5073023;28;19908;-75
2022/09/07 07:55:03;;;;;;;;;;;15.90;99.90;;;;;;5074668;28;19955;-76
2022/09/07 07:57:29;;;;;;;;;;;15.90;99.90;;;;;;5082464;28;19905;-75
2022/09/07 07:59:54;;;;;;;;;;;16.00;99.90;;;;;;5082196;28;19935;-76
2022/09/07 08:02:20;;;;;;;;;;;15.90;99.90;;;;;;5072785;28;20016;-84
2022/09/07 08:04:46;;;;;;;;;;;15.90;99.90;;;;;;5074323;28;19935;-84
2022/09/07 08:07:12;;;;;;;;;;;15.90;99.90;;;;;;5075327;28;20425;-84
2022/09/07 08:09:38;;;;;;;;;;;15.90;99.90;;;;;;5074811;28;19947;-83
2022/09/07 08:12:04;;;;;;;;;;;15.80;99.90;;;;;;5073410;28;19908;-84
2022/09/07 08:14:29;;;;;;;;;;;15.80;99.90;;;;;;5084743;28;19915;-81
2022/09/07 08:16:55;;;;;;;;;;;15.80;99.90;;;;;;5083188;28;19938;-80
2022/09/07 08:19:21;;;;;;;;;;;15.80;99.90;;;;;;5073409;28;19916;-79
2022/09/07 08:21:46;;;;;;;;;;;15.80;99.90;;;;;;5074529;28;19952;-75
2022/09/07 08:24:12;;;;;;;;;;;15.90;99.90;;;;;;5092673;28;19919;-76
2022/09/07 08:26:38;;;;;;;;;;;15.90;99.90;;;;;;5092869;28;19923;-76
2022/09/07 08:29:03;;;;;;;;;;;16.00;99.90;;;;;;5072586;28;19934;-76
2022/09/07 08:31:29;;;;;;;;;;;16.00;99.90;;;;;;5072408;28;20502;-81
2022/09/07 08:33:54;;;;;;;;;;;16.00;99.90;;;;;;5076006;28;19925;-87
2022/09/07 08:36:20;;;;;;;;;;;16.10;99.90;;;;;;5074293;28;19908;-80
2022/09/07 08:38:46;;;;;;;;;;;16.10;99.90;;;;;;5056669;28;20314;-79
2022/09/07 08:41:14;;;;;;;;;;;16.10;99.90;;;;;;5072184;28;19924;-77
2022/09/07 08:43:40;;;;;;;;;;;16.20;99.90;;;;;;5071920;28;20349;-76
2022/09/07 08:46:18;;;;;;;;;;;16.30;99.90;;;;;;5071946;28;19991;-75
2022/09/07 08:48:44;;;;;;;;;;;16.40;99.90;;;;;;5075687;28;19916;-75
2022/09/07 08:51:11;;;;;;;;;;;16.40;99.90;;;;;;5079160;28;19999;-76
2022/09/07 08:53:42;;;;;;;;;;;16.50;99.90;;;;;;5083148;28;20273;-76
2022/09/07 08:56:11;;;;;;;;;;;16.50;99.90;;;;;;5052662;28;19915;-77
2022/09/07 08:58:36;;;;;;;;;;;16.50;99.90;;;;;;5052444;28;20362;-75
2022/09/07 09:01:08;;;;;;;;;;;16.60;99.90;;;;;;5052582;28;19915;-75
2022/09/07 09:03:35;;;;;;;;;;;16.50;99.90;;;;;;5066645;28;19966;-75
2022/09/07 09:06:12;;;;;;;;;;;16.50;99.90;;;;;;5051406;28;19920;-75
2022/09/07 09:08:41;;;;;;;;;;;16.50;99.90;;;;;;5084676;28;20231;-75
2022/09/07 09:11:10;;;;;;;;;;;16.50;99.90;;;;;;5052297;28;19915;-75
2022/09/07 09:13:57;;;;;;;;;;;16.60;99.90;;;;;;5052012;28;19916;-75
2022/09/07 09:16:25;;;;;;;;;;;16.60;99.90;;;;;;5051798;28;19913;-75
2022/09/07 09:18:51;;;;;;;;;;;16.60;99.90;;;;;;5052781;28;19909;-76
2022/09/07 09:21:17;;;;;;;;;;;16.60;99.90;;;;;;5051972;28;19909;-76
2022/09/07 09:23:45;;;;;;;;;;;16.70;99.90;;;;;;5051781;28;19912;-75
2022/09/07 09:26:16;;;;;;;;;;;16.70;99.90;;;;;;5052680;28;19912;-75
2022/09/07 09:28:42;;;;;;;;;;;16.90;99.90;;;;;;5051015;28;19913;-76
2022/09/07 09:31:18;;;;;;;;;;;17.00;99.90;;;;;;5052188;28;19909;-75
2022/09/07 09:34:04;;;;;;;;;;;17.20;99.90;;;;;;5053164;28;19909;-76
2022/09/07 09:36:34;;;;;;;;;;;17.30;99.90;;;;;;5067481;28;19912;-76
2022/09/07 09:39:00;;;;;;;;;;;17.40;99.90;;;;;;5052682;28;19909;-75
2022/09/07 09:41:34;;;;;;;;;;;17.60;99.90;;;;;;5050877;28;19947;-75
2022/09/07 09:44:01;;;;;;;;;;;17.60;99.90;;;;;;5052398;28;19919;-75
2022/09/07 09:46:26;;;;;;;;;;;17.60;99.90;;;;;;5055430;28;20338;-75
2022/09/07 09:48:56;;;;;;;;;;;17.60;99.90;;;;;;5055169;28;20003;-75
2022/09/07 09:51:23;;;;;;;;;;;17.60;99.90;;;;;;5070204;28;20281;-75
2022/09/07 09:53:54;;;;;;;;;;;17.60;99.90;;;;;;5088593;28;19931;-75
2022/09/07 09:56:21;;;;;;;;;;;17.60;99.90;;;;;;5085378;28;20316;-75
2022/09/07 09:58:47;;;;;;;;;;;17.60;99.90;;;;;;5083984;28;20285;-76
2022/09/07 10:01:31;;;;;;;;;;;17.60;99.90;;;;;;5096157;28;19908;-75
2022/09/07 10:04:16;;;;;;;;;;;17.60;99.90;;;;;;5090566;28;20343;-76
2022/09/07 10:06:48;;;;;;;;;;;17.50;99.90;;;;;;5089363;28;19912;-75
2022/09/07 10:09:16;;;;;;;;;;;17.50;99.90;;;;;;5088286;28;19928;-74
2022/09/07 10:11:43;;;;;;;;;;;17.50;99.90;;;;;;5084581;28;20361;-74
2022/09/07 10:14:21;;;;;;;;;;;17.50;99.90;;;;;;5087176;28;19908;-75
2022/09/07 10:16:47;;;;;;;;;;;17.50;99.90;;;;;;5096421;28;19908;-75
2022/09/07 10:19:28;;;;;;;;;;;17.40;99.90;;;;;;5096026;28;19953;-74
2022/09/07 10:21:55;;;;;;;;;;;17.40;99.90;;;;;;5095893;28;20416;-75
2022/09/07 10:24:24;;;;;;;;;;;17.40;99.90;;;;;;5095463;28;19912;-75
2022/09/07 10:26:50;;;;;;;;;;;17.40;99.90;;;;;;5128597;27;19912;-76
2022/09/07 10:29:35;;;;;;;;;;;17.50;99.90;;;;;;5087790;28;20385;-75
2022/09/07 10:32:17;;;;;;;;;;;17.60;99.90;;;;;;5083625;28;19909;-75
2022/09/07 10:34:42;;;;;;;;;;;17.70;99.90;;;;;;5109263;27;19966;-75
2022/09/07 10:37:15;;;;;;;;;;;17.70;99.90;;;;;;5075514;28;20273;-75
2022/09/07 10:39:41;;;;;;;;;;;17.80;99.90;;;;;;5075277;28;19908;-75
2022/09/07 10:42:22;;;;;;;;;;;17.80;99.90;;;;;;5074692;28;19967;-76
2022/09/07 10:45:04;;;;;;;;;;;17.90;99.90;;;;;;5074974;28;19912;-76
2022/09/07 10:47:33;;;;;;;;;;;18.00;99.90;;;;;;5074645;28;19912;-76
2022/09/07 10:50:06;;;;;;;;;;;18.00;99.90;;;;;;5075173;28;19908;-76
2022/09/07 10:52:57;;;;;;;;;;;18.00;99.90;;;;;;5073245;28;20254;-77
2022/09/07 10:55:29;;;;;;;;;;;18.10;99.90;;;;;;5064520;28;19908;-75
2022/09/07 10:58:18;;;;;;;;;;;18.10;99.90;;;;;;5075216;28;19916;-75
2022/09/07 11:01:02;;;;;;;;;;;18.10;99.90;;;;;;5071805;28;19912;-75
2022/09/07 11:03:28;;;;;;;;;;;18.10;99.90;;;;;;5074541;28;19912;-76
2022/09/07 11:05:56;;;;;;;;;;;18.10;99.90;;;;;;5075073;28;20035;-74
2022/09/07 11:08:39;;;;;;;;;;;18.10;99.90;;;;;;5074348;28;19999;-76
2022/09/07 11:11:19;;;;;;;;;;;18.00;99.90;;;;;;5074932;28;19908;-75
2022/09/07 11:13:46;;;;;;;;;;;18.00;99.90;;;;;;5075040;28;19959;-74
2022/09/07 11:16:13;;;;;;;;;;;18.00;99.90;;;;;;5075235;28;20349;-74
2022/09/07 11:18:57;;;;;;;;;;;17.90;99.90;;;;;;5074136;28;19913;-75
2022/09/07 11:21:28;;;;;;;;;;;17.90;99.90;;;;;;5074559;28;19969;-75
2022/09/07 11:24:14;;;;;;;;;;;17.90;99.90;;;;;;5074179;28;19962;-74
2022/09/07 11:26:54;;;;;;;;;;;17.80;99.90;;;;;;5073777;28;19912;-74
2022/09/07 11:29:22;;;;;;;;;;;17.80;99.90;;;;;;5074036;28;19912;-74
2022/09/07 11:31:50;;;;;;;;;;;17.70;99.90;;;;;;5073756;28;20281;-75
2022/09/07 11:34:21;;;;;;;;;;;17.60;99.90;;;;;;5112243;27;19927;-75
2022/09/07 11:37:00;;;;;;;;;;;17.60;99.90;;;;;;5081098;28;20281;-75
2022/09/07 11:39:28;;;;;;;;;;;17.50;99.90;;;;;;5079934;28;19912;-75
2022/09/07 11:42:01;;;;;;;;;;;17.50;99.90;;;;;;5080304;28;19977;-75
2022/09/07 11:44:48;;;;;;;;;;;17.40;99.90;;;;;;5072822;28;20292;-75
2022/09/07 11:47:26;;;;;;;;;;;17.40;99.90;;;;;;5073765;28;19957;-77
2022/09/07 11:49:54;;;;;;;;;;;17.30;99.90;;;;;;5073532;28;20304;-78
2022/09/07 11:52:30;;;;;;;;;;;17.30;99.90;;;;;;5072668;28;19912;-78
2022/09/07 11:55:01;;;;;;;;;;;17.30;99.90;;;;;;5073005;28;20270;-86
2022/09/07 11:57:33;;;;;;;;;;;17.30;99.90;;;;;;5072330;28;19961;-84
2022/09/07 12:00:10;;;;;;;;;;;17.30;99.90;;;;;;5075836;28;19919;-81
2022/09/07 12:02:42;;;;;;;;;;;17.40;99.90;;;;;;5083456;28;19916;-81
2022/09/07 12:05:12;;;;;;;;;;;17.40;99.90;;;;;;5084601;28;20280;-79
2022/09/07 12:08:00;;;;;;;;;;;17.50;99.90;;;;;;5093617;28;19969;-80
2022/09/07 12:10:51;;;;;;;;;;;17.60;99.90;;;;;;5092162;28;19915;-79
2022/09/07 12:13:28;;;;;;;;;;;17.90;99.90;;;;;;5093771;28;19969;-77
2022/09/07 12:15:54;;;;;;;;;;;18.10;99.90;;;;;;5092737;28;19912;-77
2022/09/07 12:18:25;;;;;;;;;;;18.30;99.90;;;;;;5092984;28;20353;-76
2022/09/07 12:20:51;;;;;;;;;;;18.50;99.90;;;;;;5093517;28;19908;-76
2022/09/07 12:23:23;;;;;;;;;;;18.70;99.90;;;;;;5093158;28;19961;-75
2022/09/07 12:25:49;;;;;;;;;;;18.80;99.90;;;;;;5093080;28;19912;-76
2022/09/07 12:28:21;;;;;;;;;;;18.70;99.90;;;;;;5093380;28;19919;-75
2022/09/07 12:30:55;;;;;;;;;;;18.80;99.90;;;;;;5091876;28;19944;-75
2022/09/07 12:33:22;;;;;;;;;;;18.90;99.90;;;;;;5092208;28;19915;-75
2022/09/07 12:35:47;;;;;;;;;;;18.90;99.90;;;;;;5093310;28;20368;-75
2022/09/07 12:38:16;;;;;;;;;;;19.00;99.90;;;;;;5092899;28;19916;-75
2022/09/07 12:40:42;;;;;;;;;;;19.20;99.90;;;;;;5091886;28;19920;-75
2022/09/07 12:43:13;;;;;;;;;;;19.20;99.90;;;;;;5092909;28;20327;-74
2022/09/07 12:45:41;;;;;;;;;;;19.20;99.90;;;;;;5090052;28;20242;-74
2022/09/07 12:48:15;;;;;;;;;;;19.20;99.90;;;;;;5092643;28;19909;-75
2022/09/07 12:50:59;;;;;;;;;;;19.20;99.90;;;;;;5092155;28;20416;-75
2022/09/07 12:53:31;;;;;;;;;;;19.40;99.90;;;;;;5091722;28;20110;-76
2022/09/07 12:56:15;;;;;;;;;;;19.50;99.90;;;;;;5092380;28;19943;-75
2022/09/07 12:58:47;;;;;;;;;;;19.50;99.90;;;;;;5090869;28;20524;-75
2022/09/07 13:01:19;;;;;;;;;;;19.50;99.90;;;;;;5093162;28;19934;-74
2022/09/07 13:04:14;;;;;;;;;;;19.60;99.90;;;;;;5092072;28;19913;-75
2022/09/07 13:06:45;;;;;;;;;;;19.60;99.90;;;;;;5070644;28;19923;-75
2022/09/07 13:09:23;;;;;;;;;;;19.60;99.90;;;;;;5071807;28;19962;-75
2022/09/07 13:11:48;;;;;;;;;;;19.70;99.90;;;;;;5070922;28;19919;-74
2022/09/07 13:14:14;;;;;;;;;;;19.90;99.90;;;;;;5077196;28;20308;-75
2022/09/07 13:16:40;;;;;;;;;;;20.00;99.90;;;;;;5080294;28;19912;-75
2022/09/07 13:19:11;;;;;;;;;;;20.20;99.90;;;;;;5081548;28;19942;-75
2022/09/07 13:21:41;;;;;;;;;;;20.30;99.90;;;;;;5076760;28;19918;-75
2022/09/07 13:24:17;;;;;;;;;;;20.30;99.90;;;;;;5071487;28;20363;-75
2022/09/07 13:27:01;;;;;;;;;;;20.30;99.90;;;;;;5071187;28;19930;-77
2022/09/07 13:29:47;;;;;;;;;;;20.30;99.90;;;;;;5071435;28;19947;-75
2022/09/07 13:32:18;;;;;;;;;;;20.40;99.90;;;;;;5071224;28;19912;-76
2022/09/07 13:34:47;;;;;;;;;;;20.40;99.90;;;;;;5071693;28;19912;-76
2022/09/07 13:37:14;;;;;;;;;;;20.40;99.90;;;;;;5071876;28;19912;-76
2022/09/07 13:39:43;;;;;;;;;;;20.30;99.90;;;;;;5069863;28;20422;-75
2022/09/07 13:42:14;;;;;;;;;;;20.20;99.90;;;;;;5073994;28;20315;-75
2022/09/07 13:44:40;;;;;;;;;;;20.20;99.90;;;;;;5081291;28;19993;-74
2022/09/07 13:47:19;;;;;;;;;;;20.10;99.90;;;;;;5079263;28;19920;-75
2022/09/07 13:49:48;;;;;;;;;;;20.00;99.90;;;;;;5079918;28;19912;-74
2022/09/07 13:52:13;;;;;;;;;;;19.90;99.90;;;;;;5072301;28;20385;-74
2022/09/07 13:54:53;;;;;;;;;;;20.00;99.90;;;;;;5073546;28;19908;-74
2022/09/07 13:57:24;;;;;;;;;;;19.90;99.90;;;;;;5092441;28;19934;-74
2022/09/07 13:59:50;;;;;;;;;;;19.80;99.90;;;;;;5117988;28;19908;-74
2022/09/07 14:02:27;;;;;;;;;;;19.70;99.90;;;;;;5071438;28;20357;-75
2022/09/07 14:04:53;;;;;;;;;;;19.50;99.90;;;;;;5076586;28;19920;-75
2022/09/07 14:07:21;;;;;;;;;;;19.40;99.90;;;;;;5082317;28;20019;-75
2022/09/07 14:09:50;;;;;;;;;;;19.30;99.90;;;;;;5083021;28;20030;-75
2022/09/07 14:12:18;;;;;;;;;;;19.30;99.90;;;;;;5091653;28;19966;-75
2022/09/07 14:14:44;;;;;;;;;;;19.30;99.90;;;;;;5084390;28;20339;-75
2022/09/07 14:17:12;;;;;;;;;;;19.30;99.90;;;;;;5091987;28;19912;-75
2022/09/07 14:19:40;;;;;;;;;;;19.20;99.90;;;;;;5091235;28;19912;-74
2022/09/07 14:22:12;;;;;;;;;;;19.30;99.90;;;;;;5091682;28;20003;-74
2022/09/07 14:24:45;;;;;;;;;;;19.30;99.90;;;;;;5091204;28;19916;-75
2022/09/07 14:27:19;;;;;;;;;;;19.50;99.90;;;;;;5089127;28;20369;-75